This is the latest recevied weather packets stored in our database for station/object CT8ACA-6. If no packets are shown the sender has not sent any weather packets the latest 10 day(s).
| Time | Temp. | Humidity | Pressure | Rain* | Wind** | Luminosity | Snow |
|---|---|---|---|---|---|---|---|
| 1787666801 | 27.78° C | 70% | 1023.2 hPa | 0 mm | - | - | - |
| 1787666202 | 27.78° C | 71% | 1023.2 hPa | 0 mm | - | - | - |
| 1787665602 | 27.78° C | 71% | 1023 hPa | 0 mm | - | - | - |
| 1787665001 | 27.78° C | 73% | 1023 hPa | 0 mm | - | - | - |
| 1787663801 | 27.78° C | 76% | 1022 hPa | 0 mm | - | - | - |
| 1787663201 | 27.22° C | 72% | 1021.4 hPa | 0 mm | - | - | - |
| 1787662601 | 27.22° C | 74% | 1021.4 hPa | 0 mm | - | - | - |
| 1787662001 | 26.67° C | 74% | 1020.7 hPa | 0 mm | - | - | - |
| 1787661400 | 26.67° C | 77% | 1020.7 hPa | 0 mm | - | - | - |
| 1787660800 | 26.67° C | 78% | 1020 hPa | 0 mm | - | - | - |
| 1787660201 | 26.11° C | 77% | 1020 hPa | 0 mm | - | - | - |
| 1787659600 | 26.67° C | 79% | 1019.7 hPa | 0 mm | - | - | - |
| 1787659000 | 25.56° C | 81% | 1019.7 hPa | 0 mm | - | - | - |
| 1787658400 | 25° C | 81% | 1019 hPa | 0 mm | - | - | - |
| 1787657800 | 25° C | 82% | 1019 hPa | 0 mm | - | - | - |
| 1787657200 | 23.89° C | 81% | 1019 hPa | 0 mm | - | - | - |
| 1787656600 | 23.33° C | 81% | 1019 hPa | 0 mm | - | - | - |
| 1787655999 | 23.33° C | 82% | 1019 hPa | 0 mm | - | - | - |
| 1787655399 | 22.78° C | 82% | 1019 hPa | 0 mm | - | - | - |
| 1787654800 | 22.78° C | 82% | 1017.9 hPa | 0 mm | - | - | - |
| 1787654199 | 22.78° C | 83% | 1017.9 hPa | 0 mm | - | - | - |
| 1787653599 | 22.78° C | 84% | 1017 hPa | 0 mm | - | - | - |
| 1787652999 | 22.78° C | 85% | 1017 hPa | 0 mm | - | - | - |
| 1787652399 | 22.22° C | 84% | 1016.7 hPa | 0 mm | - | - | - |
| 1787650598 | 22.22° C | 85% | 1016.2 hPa | 0 mm | - | - | - |
* Rain latest hour (hover to see other rain measurements)
** Current wind speed in m/s (hover to see current wind gust speed)